createdAt,value
2023-06-22T00:00:51.237Z,2.50
2023-06-22T00:03:20.152Z,2.85
2023-06-22T00:05:48.173Z,2.97
2023-06-22T00:08:15.331Z,3.15
2023-06-22T00:10:42.595Z,2.83
2023-06-22T00:13:10.709Z,2.88
2023-06-22T00:15:38.868Z,3.40
2023-06-22T00:18:07.412Z,3.25
2023-06-22T00:23:12.149Z,4.10
2023-06-22T00:25:41.168Z,4.00
2023-06-22T00:28:08.787Z,3.55
2023-06-22T00:30:36.038Z,3.65
2023-06-22T00:33:02.864Z,3.65
2023-06-22T00:35:32.393Z,3.53
2023-06-22T00:38:05.581Z,3.55
2023-06-22T00:40:33.858Z,3.45
2023-06-22T00:43:00.796Z,3.78
2023-06-22T00:45:27.950Z,3.58
2023-06-22T00:47:58.887Z,3.47
2023-06-22T00:50:28.783Z,4.10
2023-06-22T00:53:01.716Z,3.97
2023-06-22T00:55:29.322Z,3.83
2023-06-22T00:57:56.882Z,3.70
2023-06-22T01:00:25.837Z,4.05
2023-06-22T01:02:54.071Z,4.00
2023-06-22T01:05:22.893Z,4.30
2023-06-22T01:08:20.580Z,4.10
2023-06-22T01:10:57.146Z,4.00
2023-06-22T01:13:47.116Z,4.15
2023-06-22T01:16:35.716Z,3.67
2023-06-22T01:19:25.600Z,4.10
2023-06-22T01:21:54.719Z,3.97
2023-06-22T01:24:42.914Z,4.10
2023-06-22T01:27:50.885Z,4.72
2023-06-22T01:30:19.774Z,4.03
2023-06-22T01:32:48.468Z,4.35
2023-06-22T01:35:16.309Z,4.05
2023-06-22T01:37:42.871Z,4.00
2023-06-22T01:40:10.844Z,4.38
2023-06-22T01:42:39.237Z,3.95
2023-06-22T01:45:07.461Z,4.32
2023-06-22T01:47:35.294Z,4.03
2023-06-22T01:50:02.190Z,4.18
2023-06-22T01:52:28.959Z,4.28
2023-06-22T01:54:55.582Z,4.60
2023-06-22T01:57:22.123Z,4.55
2023-06-22T02:00:05.318Z,4.75
2023-06-22T02:02:38.329Z,4.32
2023-06-22T02:05:08.388Z,4.40
2023-06-22T02:07:42.771Z,4.20
2023-06-22T02:10:13.342Z,4.30
2023-06-22T02:12:41.581Z,4.63
2023-06-22T02:15:09.261Z,4.20
2023-06-22T02:17:36.536Z,4.65
2023-06-22T02:20:09.629Z,4.32
2023-06-22T02:22:36.342Z,4.30
2023-06-22T02:25:03.733Z,4.82
2023-06-22T02:27:30.324Z,4.93
2023-06-22T02:29:56.947Z,4.50
2023-06-22T02:32:23.676Z,4.70
2023-06-22T02:34:50.605Z,4.47
2023-06-22T02:37:17.398Z,4.70
2023-06-22T02:39:44.371Z,4.22
2023-06-22T02:42:11.781Z,4.32
2023-06-22T02:44:38.685Z,4.25
2023-06-22T02:47:06.376Z,5.75
2023-06-22T02:49:33.134Z,4.93
2023-06-22T02:51:59.818Z,5.32
2023-06-22T02:54:26.542Z,5.15
2023-06-22T02:56:53.164Z,5.47
2023-06-22T02:59:24.424Z,4.63
2023-06-22T03:01:51.555Z,5.35
2023-06-22T03:04:19.358Z,5.00
2023-06-22T03:06:52.165Z,4.30
2023-06-22T03:09:19.414Z,5.25
2023-06-22T03:11:45.953Z,5.18
2023-06-22T03:14:14.655Z,5.35
2023-06-22T03:16:42.138Z,4.85
2023-06-22T03:19:08.819Z,5.00
2023-06-22T03:21:35.457Z,5.20
2023-06-22T03:24:02.096Z,5.32
2023-06-22T03:26:28.710Z,5.15
2023-06-22T03:28:55.472Z,4.55
2023-06-22T03:31:22.901Z,4.85
2023-06-22T03:33:50.900Z,5.50
2023-06-22T03:36:21.353Z,5.30
2023-06-22T03:38:49.168Z,6.13
2023-06-22T03:41:15.866Z,5.78
2023-06-22T03:43:42.911Z,6.03
2023-06-22T03:46:09.574Z,5.72
2023-06-22T03:48:36.182Z,5.32
2023-06-22T03:51:04.255Z,6.07
2023-06-22T03:53:31.201Z,5.80
2023-06-22T03:55:57.823Z,5.95
2023-06-22T03:58:24.503Z,5.88
2023-06-22T04:00:52.461Z,5.40
2023-06-22T04:03:20.394Z,6.07
2023-06-22T04:05:47.860Z,6.53
2023-06-22T04:08:15.445Z,5.93
2023-06-22T04:10:42.080Z,5.72
2023-06-22T04:13:08.905Z,6.07
2023-06-22T04:15:47.761Z,6.30
2023-06-22T04:18:14.647Z,5.88
2023-06-22T04:20:41.316Z,5.82
2023-06-22T04:23:08.733Z,6.13
2023-06-22T04:25:35.285Z,6.47
2023-06-22T04:28:04.304Z,6.13
2023-06-22T04:30:32.708Z,5.93
2023-06-22T04:32:59.487Z,6.55
2023-06-22T04:35:26.351Z,6.57
2023-06-22T04:37:56.145Z,6.10
2023-06-22T04:40:26.484Z,6.85
2023-06-22T04:42:54.190Z,6.35
2023-06-22T04:45:22.057Z,7.47
2023-06-22T04:47:48.996Z,4.72
2023-06-22T04:50:16.103Z,6.22
2023-06-22T04:52:42.642Z,6.97
2023-06-22T04:55:09.953Z,6.25
2023-06-22T04:57:36.726Z,7.20
2023-06-22T05:00:13.480Z,7.22
2023-06-22T05:02:43.212Z,7.32
2023-06-22T05:05:10.026Z,7.70
2023-06-22T05:07:37.425Z,7.85
2023-06-22T05:10:04.748Z,7.78
2023-06-22T05:12:31.934Z,8.13
2023-06-22T05:14:58.670Z,7.05
2023-06-22T05:17:26.094Z,7.38
2023-06-22T05:19:52.935Z,7.60
2023-06-22T05:22:19.863Z,7.30
2023-06-22T05:24:46.919Z,6.25
2023-06-22T05:27:14.364Z,7.95
2023-06-22T05:29:40.961Z,6.47
2023-06-22T05:32:08.585Z,7.32
2023-06-22T05:34:35.740Z,7.72
2023-06-22T05:37:03.390Z,7.32
2023-06-22T05:39:29.937Z,7.53
2023-06-22T05:41:56.504Z,5.78
2023-06-22T05:44:23.098Z,7.70
2023-06-22T05:46:49.705Z,6.43
2023-06-22T05:49:16.637Z,7.68
2023-06-22T05:51:43.813Z,7.43
2023-06-22T05:54:11.218Z,7.13
2023-06-22T05:56:39.898Z,8.07
2023-06-22T05:59:06.618Z,7.47
2023-06-22T06:01:35.912Z,7.50
2023-06-22T06:04:05.674Z,6.72
2023-06-22T06:06:32.659Z,7.43
2023-06-22T06:09:00.766Z,6.32
2023-06-22T06:11:27.898Z,7.10
2023-06-22T06:13:54.501Z,7.80
2023-06-22T06:16:21.351Z,7.55
2023-06-22T06:18:49.604Z,6.25
2023-06-22T06:21:16.264Z,7.05
2023-06-22T06:23:43.388Z,6.45
2023-06-22T06:26:10.183Z,7.82
2023-06-22T06:28:36.945Z,6.80
2023-06-22T06:31:03.746Z,7.40
2023-06-22T06:33:30.635Z,7.25
2023-06-22T06:35:57.346Z,7.85
2023-06-22T06:38:24.426Z,7.78
2023-06-22T06:40:51.048Z,7.63
2023-06-22T06:43:20.486Z,9.13
2023-06-22T06:45:47.436Z,8.07
2023-06-22T06:48:14.785Z,8.35
2023-06-22T06:50:41.434Z,8.30
2023-06-22T06:53:08.056Z,8.93
2023-06-22T06:55:34.610Z,9.45
2023-06-22T06:58:01.275Z,8.73
2023-06-22T07:00:28.314Z,8.52
2023-06-22T07:02:55.478Z,8.35
2023-06-22T07:05:22.174Z,9.48
2023-06-22T07:07:48.943Z,9.82
2023-06-22T07:10:16.536Z,9.25
2023-06-22T07:12:43.394Z,9.27
2023-06-22T07:15:11.418Z,7.97
2023-06-22T07:17:42.109Z,8.10
2023-06-22T07:20:15.562Z,8.68
2023-06-22T07:22:44.057Z,9.60
2023-06-22T07:25:10.703Z,8.27
2023-06-22T07:27:45.159Z,8.68
2023-06-22T07:30:12.513Z,8.80
2023-06-22T07:32:39.171Z,8.82
2023-06-22T07:35:06.437Z,10.18
2023-06-22T07:37:34.403Z,10.30
2023-06-22T07:40:01.142Z,9.57
2023-06-22T07:42:28.231Z,9.88
2023-06-22T07:44:55.837Z,10.52
2023-06-22T07:47:26.516Z,11.27
2023-06-22T07:49:55.893Z,10.90
2023-06-22T07:52:22.842Z,11.23
2023-06-22T07:54:49.555Z,10.13
2023-06-22T07:57:16.240Z,10.02
2023-06-22T07:59:43.129Z,10.05
2023-06-22T08:02:10.621Z,9.85
2023-06-22T08:04:37.714Z,9.73
2023-06-22T08:07:05.222Z,10.27
2023-06-22T08:09:33.552Z,8.93
2023-06-22T08:12:00.785Z,9.93
2023-06-22T08:14:28.211Z,10.45
2023-06-22T08:16:54.765Z,10.82
2023-06-22T08:19:21.437Z,9.75
2023-06-22T08:21:48.134Z,9.88
2023-06-22T08:24:14.767Z,9.55
2023-06-22T08:26:41.423Z,8.68
2023-06-22T08:29:08.017Z,10.07
2023-06-22T08:31:35.669Z,9.18
2023-06-22T08:34:02.514Z,8.90
2023-06-22T08:36:37.949Z,9.38
2023-06-22T08:39:05.103Z,9.00
2023-06-22T08:41:32.331Z,10.32
2023-06-22T08:43:59.010Z,10.07
2023-06-22T08:46:31.414Z,10.00
2023-06-22T08:48:58.956Z,9.85
2023-06-22T08:51:25.632Z,9.38
2023-06-22T08:53:52.371Z,9.98
2023-06-22T08:56:19.503Z,7.88
2023-06-22T08:58:46.079Z,9.45
2023-06-22T09:01:14.817Z,9.25
2023-06-22T09:03:43.431Z,9.85
2023-06-22T09:06:14.943Z,9.73
2023-06-22T09:08:41.586Z,8.40
2023-06-22T09:11:08.165Z,10.32
2023-06-22T09:13:35.847Z,9.45
2023-06-22T09:16:02.453Z,9.32
2023-06-22T09:18:29.066Z,9.68
2023-06-22T09:20:55.783Z,9.75
2023-06-22T09:23:22.391Z,11.80
2023-06-22T09:25:49.108Z,9.00
2023-06-22T09:28:16.248Z,10.15
2023-06-22T09:30:45.314Z,9.05
2023-06-22T09:33:11.976Z,10.13
2023-06-22T09:35:38.689Z,8.55
2023-06-22T09:38:05.289Z,9.07
2023-06-22T09:40:33.856Z,10.30
2023-06-22T09:43:00.430Z,8.68
2023-06-22T09:45:27.163Z,9.55
2023-06-22T09:47:53.782Z,9.70
2023-06-22T09:50:20.462Z,8.45
2023-06-22T09:52:51.687Z,8.50
2023-06-22T09:55:18.328Z,9.13
2023-06-22T09:57:44.907Z,7.78
2023-06-22T10:00:14.335Z,8.32
2023-06-22T10:02:42.689Z,8.43
2023-06-22T10:05:10.050Z,8.23
2023-06-22T10:07:41.106Z,7.13
2023-06-22T10:10:08.431Z,7.18
2023-06-22T10:12:37.989Z,7.30
2023-06-22T10:15:04.938Z,7.78
2023-06-22T10:17:32.098Z,8.38
2023-06-22T10:19:58.748Z,8.13
2023-06-22T10:22:40.593Z,7.32
2023-06-22T10:25:07.830Z,7.50
2023-06-22T10:27:34.562Z,8.27
2023-06-22T10:30:01.334Z,7.78
2023-06-22T10:32:29.551Z,7.22
2023-06-22T10:34:57.561Z,8.18
2023-06-22T10:37:26.060Z,8.80
2023-06-22T10:39:52.688Z,7.18
2023-06-22T10:42:19.200Z,7.88
2023-06-22T10:44:45.914Z,7.93
2023-06-22T10:47:12.837Z,8.00
2023-06-22T10:49:40.087Z,7.97
2023-06-22T10:52:09.981Z,7.78
2023-06-22T10:54:37.772Z,7.43
2023-06-22T10:57:04.578Z,8.30
2023-06-22T10:59:31.224Z,7.25
2023-06-22T11:01:58.951Z,7.35
2023-06-22T11:04:26.038Z,7.70
2023-06-22T11:06:52.715Z,8.95
2023-06-22T11:09:25.818Z,8.93
2023-06-22T11:11:56.522Z,9.85
2023-06-22T11:14:23.517Z,10.00
2023-06-22T11:16:50.195Z,8.80
2023-06-22T11:19:17.030Z,9.05
2023-06-22T11:21:43.723Z,9.65
2023-06-22T11:24:10.409Z,9.95
2023-06-22T11:26:39.813Z,8.85
2023-06-22T11:29:06.639Z,10.30
2023-06-22T11:31:33.942Z,11.20
2023-06-22T11:34:00.631Z,12.18
2023-06-22T11:36:27.510Z,11.63
2023-06-22T11:38:54.158Z,12.10
2023-06-22T11:41:20.830Z,11.65
2023-06-22T11:43:47.522Z,12.63
2023-06-22T11:46:14.125Z,12.60
2023-06-22T11:48:40.687Z,13.52
2023-06-22T11:51:09.235Z,12.88
2023-06-22T11:53:36.186Z,12.52
2023-06-22T11:56:02.988Z,13.77
2023-06-22T11:58:29.618Z,13.57
2023-06-22T12:00:56.693Z,12.98
2023-06-22T12:03:26.776Z,13.85
2023-06-22T12:05:53.603Z,13.68
2023-06-22T12:08:20.643Z,12.27
2023-06-22T12:10:47.433Z,14.23
2023-06-22T12:13:14.080Z,14.02
2023-06-22T12:15:40.680Z,12.85
2023-06-22T12:18:07.368Z,13.30
2023-06-22T12:20:33.949Z,15.35
2023-06-22T12:23:00.504Z,15.25
2023-06-22T12:25:27.426Z,12.07
2023-06-22T12:27:54.913Z,14.38
2023-06-22T12:30:21.507Z,14.70
2023-06-22T12:32:48.155Z,14.70
2023-06-22T12:35:15.314Z,12.50
2023-06-22T12:37:45.281Z,13.80
2023-06-22T12:40:12.854Z,14.02
2023-06-22T12:42:39.807Z,13.43
2023-06-22T12:45:10.747Z,14.25
2023-06-22T12:47:37.539Z,13.32
2023-06-22T12:50:04.857Z,13.85
2023-06-22T12:52:35.350Z,14.27
2023-06-22T12:55:01.926Z,14.55
2023-06-22T12:57:28.666Z,12.82
2023-06-22T12:59:55.335Z,12.88
2023-06-22T13:02:22.021Z,14.35
2023-06-22T13:04:48.618Z,15.25
2023-06-22T13:07:23.062Z,14.25
2023-06-22T13:09:54.362Z,13.75
2023-06-22T13:12:24.445Z,14.18
2023-06-22T13:14:51.193Z,13.90
2023-06-22T13:17:17.793Z,15.13
2023-06-22T13:19:44.612Z,13.75
2023-06-22T13:22:40.683Z,16.08
2023-06-22T13:25:08.114Z,15.25
2023-06-22T13:27:34.666Z,15.55
2023-06-22T13:30:01.222Z,15.88
2023-06-22T13:32:27.894Z,17.27
2023-06-22T13:34:55.154Z,14.02
2023-06-22T13:37:21.733Z,17.50
2023-06-22T13:39:48.279Z,16.88
2023-06-22T13:42:14.835Z,16.45
2023-06-22T13:44:41.572Z,14.80
2023-06-22T13:47:08.416Z,15.30
2023-06-22T13:49:35.055Z,16.83
2023-06-22T13:52:01.699Z,14.93
2023-06-22T13:54:30.336Z,16.38
2023-06-22T13:56:57.937Z,14.23
2023-06-22T13:59:24.527Z,15.90
2023-06-22T14:01:51.336Z,15.52
2023-06-22T14:04:17.886Z,15.13
2023-06-22T14:06:44.441Z,15.75
2023-06-22T14:09:11.037Z,16.27
2023-06-22T14:11:38.426Z,15.48
2023-06-22T14:14:05.024Z,14.90
2023-06-22T14:16:31.599Z,14.50
2023-06-22T14:18:58.458Z,15.23
2023-06-22T14:21:25.718Z,15.45
2023-06-22T14:23:52.457Z,14.90
2023-06-22T14:26:19.515Z,14.00
2023-06-22T14:28:53.512Z,16.45
2023-06-22T14:31:20.667Z,15.13
2023-06-22T14:33:49.210Z,16.52
2023-06-22T14:36:17.358Z,14.82
2023-06-22T14:38:44.326Z,14.10
2023-06-22T14:41:14.657Z,17.17
2023-06-22T14:43:49.064Z,14.93
2023-06-22T14:46:17.081Z,16.10
2023-06-22T14:48:44.024Z,14.80
2023-06-22T14:51:13.649Z,14.43
2023-06-22T14:53:44.691Z,13.18
2023-06-22T14:56:11.352Z,16.15
2023-06-22T14:58:37.953Z,15.90
2023-06-22T15:01:04.665Z,14.38
2023-06-22T15:03:33.353Z,14.57
2023-06-22T15:06:00.897Z,15.02
2023-06-22T15:08:27.489Z,14.85
2023-06-22T15:10:56.293Z,13.27
2023-06-22T15:13:25.698Z,14.07
2023-06-22T15:15:52.477Z,12.32
2023-06-22T15:18:19.061Z,13.60
2023-06-22T15:20:47.014Z,12.75
2023-06-22T15:23:13.945Z,12.77
2023-06-22T15:25:42.874Z,14.50
2023-06-22T15:28:09.484Z,14.45
2023-06-22T15:30:36.014Z,15.52
2023-06-22T15:33:03.144Z,15.10
2023-06-22T15:35:29.882Z,15.82
2023-06-22T15:37:56.599Z,14.95
2023-06-22T15:40:23.538Z,14.35
2023-06-22T15:42:53.994Z,14.13
2023-06-22T15:45:20.997Z,13.32
2023-06-22T15:47:47.931Z,15.98
2023-06-22T15:50:14.737Z,14.35
2023-06-22T15:52:42.373Z,13.52
2023-06-22T15:55:10.763Z,12.27
2023-06-22T15:57:37.574Z,12.27
2023-06-22T16:00:06.282Z,11.55
2023-06-22T16:02:33.093Z,11.05
2023-06-22T16:05:00.553Z,11.40
2023-06-22T16:07:28.210Z,11.48
2023-06-22T16:09:54.778Z,12.63
2023-06-22T16:12:21.646Z,11.95
2023-06-22T16:14:48.301Z,11.38
2023-06-22T16:17:14.833Z,10.43
2023-06-22T16:19:41.476Z,10.98
2023-06-22T16:22:08.123Z,10.05
2023-06-22T16:24:34.732Z,10.30
2023-06-22T16:27:02.412Z,11.45
2023-06-22T16:29:29.021Z,10.75
2023-06-22T16:31:55.684Z,10.07
2023-06-22T16:34:22.257Z,10.68
2023-06-22T16:36:51.006Z,10.63
2023-06-22T16:39:18.985Z,10.98
2023-06-22T16:41:46.205Z,10.95
2023-06-22T16:44:12.940Z,10.75
2023-06-22T16:46:41.519Z,8.35
2023-06-22T16:51:35.874Z,9.18
2023-06-22T16:54:03.058Z,9.10
2023-06-22T16:56:30.447Z,9.73
2023-06-22T17:01:30.407Z,8.68
2023-06-22T17:04:05.604Z,9.13
2023-06-22T17:06:33.327Z,8.10
2023-06-22T17:09:05.490Z,7.85
2023-06-22T17:11:32.733Z,8.10
2023-06-22T17:13:59.694Z,8.50
2023-06-22T17:17:27.720Z,7.28
2023-06-22T17:20:53.520Z,7.38
2023-06-22T17:24:19.301Z,8.88
2023-06-22T17:27:08.464Z,7.70
2023-06-22T17:29:41.065Z,8.23
2023-06-22T17:32:07.927Z,8.30
2023-06-22T17:34:34.468Z,7.45
2023-06-22T17:37:02.852Z,5.95
2023-06-22T17:39:32.470Z,10.55
2023-06-22T17:41:59.277Z,11.57
2023-06-22T17:44:29.520Z,11.25
2023-06-22T17:46:58.377Z,11.45
2023-06-22T17:49:30.440Z,11.20
2023-06-22T17:51:58.121Z,9.90
2023-06-22T17:54:39.452Z,8.88
2023-06-22T17:57:17.404Z,11.55
2023-06-22T17:59:53.805Z,7.97
2023-06-22T18:02:26.568Z,10.98
2023-06-22T18:05:04.767Z,9.13
2023-06-22T18:07:36.049Z,12.02
2023-06-22T18:10:04.050Z,9.27
2023-06-22T18:12:30.811Z,10.43
2023-06-22T18:14:58.167Z,10.68
2023-06-22T18:17:26.383Z,8.77
2023-06-22T18:19:55.839Z,11.13
2023-06-22T18:22:23.149Z,11.23
2023-06-22T18:24:54.457Z,10.52
2023-06-22T18:27:23.851Z,7.90
2023-06-22T18:29:54.938Z,10.90
2023-06-22T18:32:21.524Z,10.38
2023-06-22T18:34:48.172Z,10.98
2023-06-22T18:37:16.460Z,8.45
2023-06-22T18:39:46.049Z,10.07
2023-06-22T18:42:15.243Z,9.60
2023-06-22T18:44:42.924Z,7.85
2023-06-22T18:47:10.639Z,5.30
2023-06-22T18:49:39.991Z,6.45
2023-06-22T18:52:15.744Z,5.05
2023-06-22T18:54:43.293Z,5.63
2023-06-22T18:57:31.244Z,7.57
2023-06-22T18:59:57.705Z,5.78
2023-06-22T19:02:33.416Z,5.13
2023-06-22T19:05:07.436Z,5.55
2023-06-22T19:07:53.703Z,4.85
2023-06-22T19:10:27.634Z,5.70
2023-06-22T19:12:55.597Z,4.82
2023-06-22T19:15:30.407Z,5.53
2023-06-22T19:18:01.748Z,4.25
2023-06-22T19:20:34.507Z,5.60
2023-06-22T19:23:01.199Z,4.35
2023-06-22T19:25:34.883Z,5.07
2023-06-22T19:28:02.181Z,5.75
2023-06-22T19:30:30.458Z,4.97
2023-06-22T19:32:58.904Z,3.40
2023-06-22T19:35:27.032Z,4.53
2023-06-22T19:37:53.691Z,4.43
2023-06-22T19:40:23.079Z,5.13
2023-06-22T19:42:55.578Z,4.80
2023-06-22T19:45:22.248Z,5.28
2023-06-22T19:47:49.961Z,4.07
2023-06-22T19:50:17.958Z,4.55
2023-06-22T19:52:47.313Z,3.42
2023-06-22T19:55:17.135Z,4.80
2023-06-22T19:57:48.584Z,4.57
2023-06-22T20:00:21.934Z,5.03
2023-06-22T20:02:53.582Z,4.32
2023-06-22T20:05:21.610Z,4.18
2023-06-22T20:07:48.590Z,4.40
2023-06-22T20:10:23.060Z,5.43
2023-06-22T20:12:53.741Z,4.65
2023-06-22T20:15:26.877Z,3.97
2023-06-22T20:18:00.804Z,4.90
2023-06-22T20:20:30.587Z,4.18
2023-06-22T20:22:58.405Z,4.75
2023-06-22T20:25:26.056Z,5.45
2023-06-22T20:27:53.289Z,3.65
2023-06-22T20:30:22.034Z,4.55
2023-06-22T20:35:25.528Z,3.88
2023-06-22T20:37:56.238Z,4.82
2023-06-22T20:40:29.476Z,3.85
2023-06-22T20:43:00.812Z,5.18
2023-06-22T20:45:29.081Z,4.38
2023-06-22T20:48:00.204Z,3.78
2023-06-22T20:50:31.276Z,4.65
2023-06-22T20:52:59.424Z,3.75
2023-06-22T20:55:26.683Z,4.00
2023-06-22T20:57:53.628Z,3.63
2023-06-22T21:00:20.334Z,2.85
2023-06-22T21:02:47.007Z,4.47
2023-06-22T21:05:13.609Z,4.03
2023-06-22T21:07:41.428Z,3.97
2023-06-22T21:10:08.578Z,4.20
2023-06-22T21:12:35.226Z,3.88
2023-06-22T21:15:01.990Z,4.50
2023-06-22T21:17:32.047Z,4.70
2023-06-22T21:19:58.748Z,4.53
2023-06-22T21:22:25.495Z,4.32
2023-06-22T21:25:15.908Z,5.32
2023-06-22T21:27:44.344Z,3.60
2023-06-22T21:30:12.892Z,4.15
2023-06-22T21:32:42.385Z,3.92
2023-06-22T21:35:13.177Z,4.03
2023-06-22T21:37:39.823Z,3.35
2023-06-22T21:40:07.523Z,4.03
2023-06-22T21:42:34.158Z,4.00
2023-06-22T21:45:00.756Z,4.40
2023-06-22T21:47:27.508Z,4.05
2023-06-22T21:49:54.310Z,4.57
2023-06-22T21:52:21.376Z,3.95
2023-06-22T21:54:48.265Z,4.22
2023-06-22T21:57:14.835Z,4.60
2023-06-22T21:59:41.641Z,4.60
2023-06-22T22:02:08.321Z,4.20
2023-06-22T22:04:35.861Z,5.22
2023-06-22T22:07:02.384Z,4.00
2023-06-22T22:09:29.216Z,3.60
2023-06-22T22:11:55.765Z,4.95
2023-06-22T22:14:22.373Z,4.40
2023-06-22T22:16:49.028Z,4.50
2023-06-22T22:19:15.989Z,4.10
2023-06-22T22:21:43.678Z,4.80
2023-06-22T22:24:10.681Z,4.57
2023-06-22T22:26:37.305Z,3.95
2023-06-22T22:29:07.441Z,4.55
2023-06-22T22:31:39.053Z,4.18
2023-06-22T22:34:12.145Z,4.20
2023-06-22T22:36:42.114Z,4.30
2023-06-22T22:39:10.322Z,4.50
2023-06-22T22:41:37.663Z,5.00
2023-06-22T22:44:04.393Z,4.95
2023-06-22T22:46:32.711Z,4.47
2023-06-22T22:49:01.468Z,4.18
2023-06-22T22:51:27.998Z,4.30
2023-06-22T22:53:54.655Z,3.15
2023-06-22T22:56:21.457Z,4.28
2023-06-22T22:58:48.008Z,4.25
2023-06-22T23:01:14.583Z,3.33
2023-06-22T23:03:42.155Z,4.40
2023-06-22T23:06:09.623Z,4.07
2023-06-22T23:08:36.212Z,3.72
2023-06-22T23:11:02.814Z,4.10
2023-06-22T23:13:29.465Z,3.40
2023-06-22T23:15:56.116Z,4.30
2023-06-22T23:18:22.780Z,4.28
2023-06-22T23:20:51.374Z,3.67
2023-06-22T23:23:18.116Z,4.00
2023-06-22T23:25:45.938Z,4.72
2023-06-22T23:28:12.870Z,3.47
2023-06-22T23:30:40.582Z,4.18
2023-06-22T23:33:07.220Z,4.95
2023-06-22T23:35:34.034Z,3.75
2023-06-22T23:38:00.772Z,3.53
2023-06-22T23:40:27.349Z,4.30
2023-06-22T23:42:53.914Z,4.95
2023-06-22T23:45:21.414Z,4.30
2023-06-22T23:47:49.679Z,4.30
2023-06-22T23:50:17.869Z,5.10
2023-06-22T23:52:49.578Z,4.40
2023-06-22T23:55:17.459Z,4.68
2023-06-22T23:57:44.888Z,4.15
